Time;durP1;ratioP1;P1;durP2;ratioP2;P2;SDS_P1;SDS_P2;PMS_P1;PMS_P2;Temp;Humidity;BMP_temperature;BMP_pressure;BME280_temperature;BME280_humidity;BME280_pressure;Samples;Min_cycle;Max_cycle;Signal;HPM_P1;HPM_P2
2022/04/28 00:00:48;;;;;;;11.85;7.85;;;;;;;7.93;95.06;97237.16;5006432;28;20032;-66
2022/04/28 00:03:14;;;;;;;11.68;8.38;;;;;;;7.92;95.75;97239.06;4991774;28;20109;-70
2022/04/28 00:05:40;;;;;;;12.40;8.30;;;;;;;8.02;94.25;97252.28;4990615;28;20049;-69
2022/04/28 00:08:06;;;;;;;11.55;7.78;;;;;;;7.85;95.93;97242.34;5003160;28;20039;-68
2022/04/28 00:10:33;;;;;;;12.15;8.25;;;;;;;7.87;95.64;97250.22;4991551;28;20471;-69
2022/04/28 00:13:00;;;;;;;12.88;9.05;;;;;;;7.89;95.21;97258.84;4991974;28;20038;-68
2022/04/28 00:15:27;;;;;;;11.95;8.75;;;;;;;7.86;95.65;97254.06;4990898;28;20042;-67
2022/04/28 00:17:53;;;;;;;12.02;7.93;;;;;;;7.75;96.40;97253.66;4991214;28;20030;-67
2022/04/28 00:20:18;;;;;;;12.73;8.45;;;;;;;7.76;96.40;97249.81;4990103;28;20514;-67
2022/04/28 00:22:45;;;;;;;12.52;8.35;;;;;;;7.77;96.29;97253.34;4990373;28;20474;-69
2022/04/28 00:25:10;;;;;;;11.60;8.40;;;;;;;7.78;95.63;97249.50;4998614;28;20054;-70
2022/04/28 00:27:36;;;;;;;13.15;8.55;;;;;;;7.72;95.76;97250.81;5011634;28;20038;-67
2022/04/28 00:30:05;;;;;;;11.73;7.97;;;;;;;7.72;96.15;97254.31;4996661;28;20030;-67
2022/04/28 00:32:30;;;;;;;12.73;9.30;;;;;;;7.71;96.38;97254.69;4995941;28;20141;-68
2022/04/28 00:34:56;;;;;;;14.57;9.32;;;;;;;7.61;97.12;97255.88;4991672;28;20034;-66
2022/04/28 00:37:22;;;;;;;13.07;8.45;;;;;;;7.50;98.14;97257.41;4990283;28;20472;-66
2022/04/28 00:39:47;;;;;;;13.57;8.40;;;;;;;7.51;98.55;97253.53;4989432;28;20034;-66
2022/04/28 00:42:15;;;;;;;14.05;9.07;;;;;;;7.43;98.50;97255.22;4990911;28;20038;-67
2022/04/28 00:44:41;;;;;;;14.48;8.98;;;;;;;7.41;98.68;97252.81;4990144;28;20022;-66
2022/04/28 00:47:07;;;;;;;13.00;8.30;;;;;;;7.43;98.54;97253.28;5005363;28;20046;-67
2022/04/28 00:52:17;;;;;;;14.07;9.30;;;;;;;7.35;98.75;97251.44;4971367;28;20043;-67
2022/04/28 00:54:45;;;;;;;14.70;9.90;;;;;;;7.37;98.58;97253.81;4971492;28;20039;-66
2022/04/28 00:57:11;;;;;;;13.68;9.10;;;;;;;7.31;99.50;97253.22;4970481;28;20034;-66
2022/04/28 00:59:38;;;;;;;12.88;8.52;;;;;;;7.32;98.21;97246.63;4971448;28;20506;-67
2022/04/28 01:02:06;;;;;;;14.32;9.02;;;;;;;7.28;99.13;97259.34;4971431;28;20027;-66
2022/04/28 01:04:33;;;;;;;15.23;8.80;;;;;;;7.24;100.00;97255.69;4971343;28;20440;-66
2022/04/28 01:06:59;;;;;;;16.00;9.80;;;;;;;7.23;99.85;97256.81;4971145;28;20055;-66
2022/04/28 01:09:24;;;;;;;14.80;9.63;;;;;;;7.22;99.53;97255.19;4971479;28;20551;-67
2022/04/28 01:11:50;;;;;;;15.00;9.55;;;;;;;7.21;100.00;97254.41;4970983;28;20065;-68
2022/04/28 01:14:15;;;;;;;16.85;10.05;;;;;;;7.16;100.00;97265.50;4970905;28;20041;-65
2022/04/28 01:16:41;;;;;;;13.57;8.90;;;;;;;7.14;100.00;97258.78;4970303;28;20038;-68
2022/04/28 01:19:06;;;;;;;14.27;10.02;;;;;;;7.12;100.00;97248.22;4969412;28;20046;-66
2022/04/28 01:21:32;;;;;;;14.77;9.70;;;;;;;7.08;100.00;97250.81;4970010;28;20045;-67
2022/04/28 01:23:58;;;;;;;16.25;10.10;;;;;;;6.99;100.00;97258.22;4971338;28;20519;-69
2022/04/28 01:26:27;;;;;;;17.02;10.60;;;;;;;6.99;100.00;97254.72;4970078;28;20030;-66
2022/04/28 01:28:52;;;;;;;15.57;10.52;;;;;;;6.92;100.00;97257.16;4970758;28;20419;-69
2022/04/28 01:31:18;;;;;;;15.60;10.15;;;;;;;6.93;100.00;97264.19;4970666;28;20042;-68
2022/04/28 01:33:43;;;;;;;16.25;10.60;;;;;;;6.87;100.00;97255.41;4970336;28;20104;-68
2022/04/28 01:36:09;;;;;;;17.60;10.57;;;;;;;6.79;100.00;97254.34;4970351;28;20035;-66
2022/04/28 01:38:35;;;;;;;18.38;11.93;;;;;;;6.89;100.00;97250.44;4978696;28;20027;-69
2022/04/28 01:41:00;;;;;;;17.33;10.82;;;;;;;6.80;100.00;97253.19;4973434;28;20543;-66
2022/04/28 01:43:26;;;;;;;17.00;11.48;;;;;;;6.72;100.00;97259.50;4970709;28;20487;-67
2022/04/28 01:45:51;;;;;;;18.00;11.23;;;;;;;6.69;100.00;97263.66;4970070;28;20442;-68
2022/04/28 01:48:17;;;;;;;15.15;10.73;;;;;;;6.64;100.00;97261.13;4970583;28;20051;-64
2022/04/28 01:54:57;;;;;;;18.77;11.65;;;;;;;6.59;100.00;97258.59;4980303;28;20375;-67
2022/04/28 01:56:11;;;;;;;17.52;11.52;;;;;;;6.47;100.00;97267.44;4989171;28;20096;-67
2022/04/28 01:58:37;;;;;;;18.05;11.82;;;;;;;6.48;100.00;97260.88;4990046;28;20133;-68
2022/04/28 02:01:02;;;;;;;18.20;11.88;;;;;;;6.55;100.00;97268.53;4990346;28;20041;-67
2022/04/28 02:03:27;;;;;;;18.20;11.52;;;;;;;6.51;100.00;97264.88;4992871;28;20037;-68
2022/04/28 02:05:53;;;;;;;20.10;12.55;;;;;;;6.55;100.00;97262.28;5006831;28;20040;-72
2022/04/28 02:08:18;;;;;;;18.02;11.57;;;;;;;6.52;100.00;97258.31;4996480;28;20030;-65
2022/04/28 02:10:44;;;;;;;19.73;12.00;;;;;;;6.52;100.00;97261.03;4991095;28;20384;-69
2022/04/28 02:13:09;;;;;;;18.70;12.70;;;;;;;6.54;100.00;97263.44;4989998;28;20034;-66
2022/04/28 02:15:36;;;;;;;20.13;12.80;;;;;;;6.46;100.00;97260.41;4988310;28;20026;-71
2022/04/28 02:18:02;;;;;;;17.92;12.30;;;;;;;6.47;100.00;97262.00;4989372;28;20034;-67
2022/04/28 02:20:27;;;;;;;20.60;12.93;;;;;;;6.43;100.00;97261.06;4990036;28;20029;-66
2022/04/28 02:22:52;;;;;;;19.58;12.93;;;;;;;6.40;100.00;97260.91;5006360;28;20435;-66
2022/04/28 02:25:18;;;;;;;21.88;14.23;;;;;;;6.38;100.00;97261.22;5006214;28;20565;-66
2022/04/28 02:27:43;;;;;;;20.92;12.63;;;;;;;6.36;100.00;97263.47;4990965;28;20038;-67
2022/04/28 02:30:09;;;;;;;19.83;13.23;;;;;;;6.37;100.00;97267.78;5000807;28;20030;-67
2022/04/28 02:35:19;;;;;;;24.52;13.43;;;;;;;6.25;100.00;97273.91;4989088;28;20046;-68
2022/04/28 02:37:44;;;;;;;22.88;13.93;;;;;;;6.23;100.00;97267.19;4975302;28;20027;-70
2022/04/28 02:40:10;;;;;;;20.95;13.65;;;;;;;6.23;100.00;97269.91;4978499;28;20045;-67
2022/04/28 02:42:35;;;;;;;20.45;14.00;;;;;;;6.27;100.00;97271.66;4993873;28;20114;-66
2022/04/28 02:45:01;;;;;;;22.00;13.65;;;;;;;6.26;100.00;97269.25;4984809;28;20289;-68
2022/04/28 02:47:27;;;;;;;23.40;13.48;;;;;;;6.21;100.00;97264.81;4994219;28;20057;-67
2022/04/28 02:49:52;;;;;;;21.75;13.57;;;;;;;6.22;100.00;97266.38;4994178;28;20034;-67
2022/04/28 02:52:18;;;;;;;21.98;13.27;;;;;;;6.15;100.00;97268.03;4982912;28;20502;-70
2022/04/28 02:54:43;;;;;;;21.88;13.20;;;;;;;6.17;100.00;97280.16;4985027;28;20418;-68
2022/04/28 02:57:08;;;;;;;23.33;13.93;;;;;;;6.15;100.00;97273.47;4993728;28;20034;-66
2022/04/28 02:59:34;;;;;;;22.90;14.13;;;;;;;6.13;100.00;97274.56;4990008;28;20116;-70
2022/04/28 03:01:59;;;;;;;23.05;13.93;;;;;;;6.05;100.00;97280.03;4980074;28;20468;-68
2022/04/28 03:04:25;;;;;;;21.90;14.10;;;;;;;6.01;100.00;97279.06;4989684;28;20062;-67
2022/04/28 03:12:19;;;;;;;24.23;14.10;;;;;;;6.00;100.00;97283.72;4977261;28;20061;-69
2022/04/28 03:14:44;;;;;;;25.35;14.27;;;;;;;6.01;100.00;97284.50;4994526;28;20034;-66
2022/04/28 03:17:10;;;;;;;24.85;15.60;;;;;;;5.94;100.00;97280.34;4994205;28;20080;-69
2022/04/28 03:19:35;;;;;;;23.70;13.88;;;;;;;5.88;100.00;97295.22;4990884;28;20411;-66
2022/04/28 03:22:00;;;;;;;22.55;14.43;;;;;;;5.96;100.00;97280.06;4986675;28;20105;-66
2022/04/28 03:24:26;;;;;;;24.27;14.75;;;;;;;5.92;100.00;97296.19;4985192;28;20093;-69
2022/04/28 03:26:51;;;;;;;23.08;14.65;;;;;;;5.90;100.00;97292.16;4992183;28;20060;-65
2022/04/28 03:29:17;;;;;;;23.83;14.32;;;;;;;5.84;100.00;97293.47;5010235;28;20037;-66
2022/04/28 03:31:42;;;;;;;23.58;13.93;;;;;;;5.83;100.00;97291.84;4997951;28;20037;-67
2022/04/28 03:34:07;;;;;;;26.60;15.73;;;;;;;5.83;100.00;97294.56;4987194;28;20471;-66
2022/04/28 03:36:52;;;;;;;27.42;16.73;;;;;;;5.87;100.00;97298.25;4993235;28;20038;-67
2022/04/28 03:39:17;;;;;;;26.85;16.15;;;;;;;5.86;100.00;97292.00;4994184;28;20030;-67
2022/04/28 03:41:44;;;;;;;27.00;14.18;;;;;;;5.88;100.00;97289.78;4982262;28;20528;-65
2022/04/28 03:44:09;;;;;;;27.23;15.85;;;;;;;5.77;100.00;97291.22;5003509;28;20518;-65
2022/04/28 03:46:35;;;;;;;26.73;16.05;;;;;;;5.75;100.00;97299.69;4996835;28;20034;-68
2022/04/28 03:49:01;;;;;;;26.88;15.43;;;;;;;5.74;100.00;97297.28;5003916;28;20034;-69
2022/04/28 03:51:26;;;;;;;27.30;16.67;;;;;;;5.75;100.00;97298.91;5003585;28;20042;-67
2022/04/28 03:53:52;;;;;;;26.17;16.40;;;;;;;5.78;100.00;97303.72;4995077;28;20126;-67
2022/04/28 03:56:17;;;;;;;25.98;16.23;;;;;;;5.82;100.00;97298.44;4988284;28;20030;-68
2022/04/28 03:58:43;;;;;;;27.73;16.58;;;;;;;5.86;100.00;97296.66;4992506;28;20084;-65
2022/04/28 04:01:09;;;;;;;27.67;16.08;;;;;;;5.86;100.00;97304.81;4993230;28;20023;-65
2022/04/28 04:03:34;;;;;;;29.00;16.88;;;;;;;5.87;100.00;97303.69;5008499;28;20034;-65
2022/04/28 04:06:00;;;;;;;27.73;15.95;;;;;;;5.82;100.00;97310.09;4984092;28;20093;-66
2022/04/28 04:08:25;;;;;;;25.40;15.73;;;;;;;5.76;100.00;97316.78;4989812;28;20042;-68
2022/04/28 04:10:50;;;;;;;28.80;16.83;;;;;;;5.74;100.00;97319.03;4990879;28;20030;-65
2022/04/28 04:13:16;;;;;;;28.48;17.20;;;;;;;5.73;100.00;97320.19;4993078;28;20034;-67
2022/04/28 04:15:42;;;;;;;28.42;17.58;;;;;;;5.78;100.00;97317.31;4990427;28;20038;-68
2022/04/28 04:18:08;;;;;;;28.75;17.10;;;;;;;5.78;100.00;97330.91;4985794;28;20081;-66
2022/04/28 04:20:34;;;;;;;31.73;17.27;;;;;;;5.76;100.00;97322.22;4992770;28;20050;-66
2022/04/28 04:23:00;;;;;;;28.02;16.70;;;;;;;5.74;100.00;97325.28;4993092;28;20147;-65
2022/04/28 04:25:25;;;;;;;28.55;17.05;;;;;;;5.77;100.00;97328.50;4990169;28;20527;-67
2022/04/28 04:27:51;;;;;;;26.55;16.98;;;;;;;5.81;100.00;97332.16;4984979;28;20027;-66
2022/04/28 04:33:00;;;;;;;29.90;18.35;;;;;;;5.88;100.00;97333.28;4978776;28;20114;-65
2022/04/28 04:35:26;;;;;;;29.30;17.15;;;;;;;5.88;100.00;97337.91;4987010;28;20582;-65
2022/04/28 04:37:52;;;;;;;32.20;17.42;;;;;;;5.93;100.00;97345.91;4990339;28;20034;-65
2022/04/28 04:40:18;;;;;;;34.17;19.50;;;;;;;5.91;100.00;97348.16;4991205;28;20026;-68
2022/04/28 04:42:44;;;;;;;30.05;18.13;;;;;;;5.93;100.00;97354.06;4987764;28;20038;-64
2022/04/28 04:45:10;;;;;;;29.17;17.23;;;;;;;5.99;100.00;97355.53;5000284;28;20030;-65
2022/04/28 04:47:36;;;;;;;30.45;17.75;;;;;;;6.01;100.00;97364.16;4993277;28;20049;-65
2022/04/28 04:50:04;;;;;;;31.85;18.33;;;;;;;6.11;100.00;97365.78;4990174;28;20030;-65
2022/04/28 04:52:29;;;;;;;28.30;17.63;;;;;;;6.13;100.00;97360.81;4990999;28;20045;-64
2022/04/28 04:54:54;;;;;;;32.10;18.52;;;;;;;6.13;100.00;97364.31;4992268;28;20034;-66
2022/04/28 04:57:20;;;;;;;29.50;18.35;;;;;;;6.18;100.00;97359.84;4990944;28;20108;-65
2022/04/28 04:59:45;;;;;;;31.52;18.40;;;;;;;6.20;100.00;97368.50;4990834;28;20038;-66
2022/04/28 05:02:11;;;;;;;31.60;18.20;;;;;;;6.23;100.00;97370.56;4991376;28;20026;-68
2022/04/28 05:04:36;;;;;;;33.17;17.92;;;;;;;6.27;100.00;97372.31;4989216;28;20026;-66
2022/04/28 05:07:02;;;;;;;32.58;18.65;;;;;;;6.42;100.00;97376.44;4991469;28;20049;-66
2022/04/28 05:09:27;;;;;;;30.90;18.80;;;;;;;6.83;100.00;97377.78;4987608;28;20041;-68
2022/04/28 05:11:52;;;;;;;29.60;16.02;;;;;;;7.39;100.00;97379.66;4982358;28;20057;-65
2022/04/28 05:14:18;;;;;;;27.92;17.30;;;;;;;7.53;100.00;97377.50;4991159;28;20037;-67
2022/04/28 05:16:43;;;;;;;25.65;14.90;;;;;;;7.66;100.00;97376.44;5005822;28;20045;-66
2022/04/28 05:19:08;;;;;;;32.90;16.85;;;;;;;8.16;99.56;97379.44;4982576;28;20038;-66
2022/04/28 05:21:34;;;;;;;24.35;14.98;;;;;;;8.23;98.69;97385.97;4992170;28;20026;-66
2022/04/28 05:23:59;;;;;;;26.00;16.17;;;;;;;8.63;95.90;97387.38;4990425;28;20403;-67
2022/04/28 05:26:25;;;;;;;23.20;15.55;;;;;;;8.46;96.74;97382.09;4990331;28;20030;-68
2022/04/28 05:28:50;;;;;;;23.90;15.02;;;;;;;8.57;96.07;97384.06;5006717;28;20054;-66
2022/04/28 05:31:15;;;;;;;24.15;15.85;;;;;;;8.58;95.48;97388.38;4989069;28;20052;-67
2022/04/28 05:33:42;;;;;;;23.65;15.50;;;;;;;8.84;94.60;97394.72;4983616;28;20650;-68
2022/04/28 05:36:12;;;;;;;26.77;16.60;;;;;;;9.11;91.84;97398.75;4990902;28;20034;-67
2022/04/28 05:38:39;;;;;;;24.33;15.45;;;;;;;9.03;91.23;97391.47;4983190;28;20038;-68
2022/04/28 05:41:05;;;;;;;26.48;16.85;;;;;;;8.72;94.43;97395.50;4990698;28;20026;-67
2022/04/28 05:46:17;;;;;;;26.88;16.15;;;;;;;9.21;91.75;97394.78;4991682;28;20447;-67
2022/04/28 05:48:43;;;;;;;27.20;17.33;;;;;;;10.61;84.17;97407.22;5006688;28;20038;-69
2022/04/28 05:51:09;;;;;;;30.45;19.67;;;;;;;10.27;86.64;97401.16;5003513;28;20074;-66
2022/04/28 05:53:35;;;;;;;22.48;14.82;;;;;;;10.79;82.12;97402.22;4992424;28;20034;-65
2022/04/28 05:56:00;;;;;;;23.13;15.45;;;;;;;10.22;85.57;97406.88;4991873;28;20037;-65
2022/04/28 05:58:25;;;;;;;34.28;20.52;;;;;;;9.86;88.49;97403.84;4992331;28;20026;-65
2022/04/28 06:00:51;;;;;;;28.48;17.75;;;;;;;9.45;89.45;97410.38;4987541;28;20034;-67
2022/04/28 06:03:16;;;;;;;31.73;19.75;;;;;;;9.84;87.74;97413.56;4976269;28;20039;-66
2022/04/28 06:05:42;;;;;;;27.17;15.25;;;;;;;10.07;85.19;97403.72;4988352;28;20034;-66
2022/04/28 06:08:07;;;;;;;21.38;14.25;;;;;;;9.86;87.97;97419.50;5035383;23;20397;-66
2022/04/28 06:10:33;;;;;;;22.05;14.38;;;;;;;9.68;87.32;97417.00;5033611;28;20033;-67
2022/04/28 06:12:58;;;;;;;22.70;15.05;;;;;;;9.72;87.70;97422.56;5033685;28;20481;-65
2022/04/28 06:15:24;;;;;;;23.00;15.30;;;;;;;9.91;87.28;97427.47;5025665;28;20037;-65
2022/04/28 06:17:49;;;;;;;24.48;15.23;;;;;;;10.47;83.72;97430.31;5034188;28;20033;-67
2022/04/28 06:20:15;;;;;;;25.58;15.52;;;;;;;10.29;84.98;97426.25;5034354;28;20100;-66
2022/04/28 06:22:41;;;;;;;25.70;14.98;;;;;;;11.05;79.52;97429.91;5031694;28;20033;-67
2022/04/28 06:25:07;;;;;;;20.15;14.25;;;;;;;10.61;82.68;97434.63;5023018;28;20080;-67
2022/04/28 06:27:32;;;;;;;20.52;14.23;;;;;;;11.84;76.98;97440.06;5014619;28;20030;-66
2022/04/28 06:29:57;;;;;;;22.85;14.75;;;;;;;11.71;75.89;97435.88;5014849;28;20038;-66
2022/04/28 06:32:23;;;;;;;22.23;15.73;;;;;;;12.52;72.90;97438.06;5018476;28;20069;-65
2022/04/28 06:34:48;;;;;;;19.52;13.05;;;;;;;12.41;73.30;97440.59;5026162;28;20036;-68
2022/04/28 06:37:16;;;;;;;19.50;13.02;;;;;;;13.43;69.31;97437.78;5032423;28;20041;-67
2022/04/28 06:39:43;;;;;;;17.67;12.82;;;;;;;11.20;77.44;97446.72;5033156;28;20096;-68
2022/04/28 06:42:09;;;;;;;26.95;13.27;;;;;;;11.41;78.27;97441.78;5025459;28;20025;-70
2022/04/28 06:44:35;;;;;;;21.00;15.93;;;;;;;11.84;77.43;97442.81;5023485;28;20046;-67
2022/04/28 06:47:01;;;;;;;19.45;13.13;;;;;;;14.09;66.95;97453.00;5034104;28;20044;-67
2022/04/28 06:49:26;;;;;;;17.90;12.40;;;;;;;12.54;72.83;97445.94;5032750;28;20025;-67
2022/04/28 06:51:52;;;;;;;19.52;11.98;;;;;;;13.13;70.60;97455.72;5033218;28;20022;-65
2022/04/28 06:54:18;;;;;;;19.55;12.35;;;;;;;11.38;76.57;97445.25;5032945;28;20061;-67
2022/04/28 06:56:44;;;;;;;21.27;13.68;;;;;;;10.96;78.85;97458.66;5040929;28;20788;-66
2022/04/28 06:59:09;;;;;;;21.05;13.90;;;;;;;11.65;77.90;97464.72;5038787;28;20030;-66
2022/04/28 07:01:35;;;;;;;17.77;12.00;;;;;;;13.34;71.27;97463.63;5034866;28;20049;-68
2022/04/28 07:04:01;;;;;;;18.77;11.93;;;;;;;12.41;72.44;97461.78;5034043;28;20029;-67
2022/04/28 07:06:26;;;;;;;17.45;11.98;;;;;;;12.96;71.68;97464.44;5024414;28;20061;-66
2022/04/28 07:08:52;;;;;;;18.30;12.10;;;;;;;13.31;70.25;97460.78;5027579;28;20057;-65
2022/04/28 07:11:17;;;;;;;16.15;11.13;;;;;;;13.45;67.56;97472.06;5027640;28;20029;-66
2022/04/28 07:13:42;;;;;;;19.75;13.13;;;;;;;11.62;74.87;97459.94;5025461;28;20034;-65
2022/04/28 07:16:08;;;;;;;20.15;12.30;;;;;;;11.24;79.02;97459.41;5031896;28;20104;-66
2022/04/28 07:18:33;;;;;;;21.55;13.57;;;;;;;11.28;79.73;97454.78;5023564;28;20037;-66
2022/04/28 07:21:03;;;;;;;19.85;12.35;;;;;;;11.39;79.37;97462.50;5015207;28;20065;-65
2022/04/28 07:23:29;;;;;;;;;;;;;;;11.92;74.54;97460.31;5022122;28;20060;-66
2022/04/28 07:25:54;;;;;;;21.35;14.13;;;;;;;12.47;73.82;97457.56;5012214;28;19914;-66
2022/04/28 07:28:20;;;;;;;17.55;12.23;;;;;;;12.20;73.52;97467.59;5020307;28;20033;-67
2022/04/28 07:30:46;;;;;;;18.65;13.07;;;;;;;12.57;73.91;97467.22;5042610;28;20060;-67
2022/04/28 07:33:12;;;;;;;18.92;12.55;;;;;;;12.30;73.33;97467.03;5050983;28;20087;-68
2022/04/28 07:35:37;;;;;;;18.23;12.18;;;;;;;12.53;72.03;97455.34;5034977;28;20041;-66
2022/04/28 07:38:04;;;;;;;16.80;11.40;;;;;;;12.32;74.28;97469.44;5047386;28;20068;-70
2022/04/28 07:40:30;;;;;;;17.27;12.80;;;;;;;12.58;71.33;97464.06;5042712;28;20028;-68
2022/04/28 07:42:56;;;;;;;16.27;10.02;;;;;;;11.90;73.99;97470.81;5020237;28;20030;-64
2022/04/28 07:45:22;;;;;;;19.90;13.50;;;;;;;12.53;74.05;97477.31;5017382;28;20037;-63
2022/04/28 07:47:49;;;;;;;17.17;11.30;;;;;;;13.34;69.31;97471.88;5028115;28;20108;-67
2022/04/28 07:50:15;;;;;;;15.23;10.13;;;;;;;13.21;68.45;97475.91;5021720;28;20421;-69
2022/04/28 07:52:40;;;;;;;19.33;13.10;;;;;;;13.53;69.28;97468.25;5021135;28;20441;-67
2022/04/28 07:55:07;;;;;;;15.98;10.80;;;;;;;14.04;66.97;97471.81;5008746;28;20049;-67
2022/04/28 07:57:33;;;;;;;13.43;9.73;;;;;;;14.11;67.15;97472.69;5019349;28;20429;-67
2022/04/28 07:59:58;;;;;;;15.20;9.63;;;;;;;14.23;66.81;97473.66;5023099;28;20128;-67
2022/04/28 08:02:23;;;;;;;13.35;9.35;;;;;;;15.06;61.54;97476.31;5007199;28;20052;-66
2022/04/28 08:04:49;;;;;;;19.17;10.60;;;;;;;16.85;57.56;97473.34;5002643;28;20491;-67
2022/04/28 08:07:15;;;;;;;14.75;8.65;;;;;;;18.18;51.63;97465.22;5000912;28;20087;-68
2022/04/28 08:09:40;;;;;;;12.02;7.85;;;;;;;17.39;53.31;97474.31;5020511;28;20049;-68
2022/04/28 08:12:06;;;;;;;11.38;8.10;;;;;;;16.76;55.77;97481.19;5017372;28;20068;-67
2022/04/28 08:14:32;;;;;;;11.93;8.63;;;;;;;15.59;57.60;97474.47;5021657;28;20053;-67
2022/04/28 08:16:58;;;;;;;11.98;7.80;;;;;;;16.27;56.49;97477.00;5019470;28;20512;-66
2022/04/28 08:19:25;;;;;;;22.50;9.63;;;;;;;14.69;59.53;97479.00;5011637;28;20048;-68
2022/04/28 08:21:50;;;;;;;10.60;7.53;;;;;;;14.82;60.96;97477.63;5013641;28;20037;-70
2022/04/28 08:24:16;;;;;;;11.02;6.90;;;;;;;14.44;61.22;97473.16;5016646;28;20482;-67
2022/04/28 08:26:42;;;;;;;10.30;7.30;;;;;;;14.87;60.43;97474.53;5020031;28;20053;-64
2022/04/28 08:29:08;;;;;;;10.20;7.45;;;;;;;15.55;58.05;97471.66;5011063;28;20044;-68
2022/04/28 08:31:34;;;;;;;9.63;6.70;;;;;;;16.01;55.12;97471.28;5001180;28;20050;-68
2022/04/28 08:34:00;;;;;;;10.27;6.82;;;;;;;16.14;54.54;97465.47;5003238;28;20048;-68
2022/04/28 08:36:25;;;;;;;9.23;6.07;;;;;;;16.39;54.44;97465.63;4996657;28;20136;-67
2022/04/28 08:38:52;;;;;;;8.35;5.53;;;;;;;16.82;51.93;97474.13;5000989;28;20054;-68
2022/04/28 08:41:47;;;;;;;8.80;5.47;;;;;;;15.68;54.90;97475.75;4995256;28;20494;-66
2022/04/28 08:44:22;;;;;;;7.03;5.15;;;;;;;15.81;55.82;97484.56;4995019;28;20136;-68
2022/04/28 08:46:51;;;;;;;7.97;5.43;;;;;;;15.67;54.30;97485.19;4999593;28;20042;-68
2022/04/28 08:49:18;;;;;;;10.73;5.00;;;;;;;16.05;54.83;97477.63;4996743;28;20495;-68
2022/04/28 08:51:44;;;;;;;8.60;4.95;;;;;;;15.60;51.25;97476.84;5002658;28;20331;-68
2022/04/28 08:54:11;;;;;;;19.52;9.27;;;;;;;17.05;54.01;97486.88;4998912;28;20118;-68
2022/04/28 08:56:36;;;;;;;10.88;8.07;;;;;;;17.04;51.98;97494.38;5001352;28;20129;-66
2022/04/28 08:59:03;;;;;;;5.18;3.72;;;;;;;15.92;49.07;97490.16;5000042;28;20145;-68
2022/04/28 09:01:29;;;;;;;5.50;3.83;;;;;;;16.07;47.96;97493.81;4999470;28;20049;-68
2022/04/28 09:03:59;;;;;;;7.43;4.70;;;;;;;15.14;49.67;97487.44;5001582;28;20069;-70
2022/04/28 09:06:30;;;;;;;8.52;5.60;;;;;;;16.74;49.78;97481.56;4998210;28;20488;-68
2022/04/28 09:08:57;;;;;;;8.13;5.45;;;;;;;17.55;45.89;97485.00;5000358;28;20494;-67
2022/04/28 09:11:28;;;;;;;9.10;5.40;;;;;;;16.50;51.03;97502.41;4996871;28;20568;-67
2022/04/28 09:14:09;;;;;;;5.55;4.13;;;;;;;15.69;47.96;97506.91;5002095;28;20057;-67
2022/04/28 09:16:36;;;;;;;4.80;3.45;;;;;;;15.21;46.77;97501.31;5001491;28;20057;-67
2022/04/28 09:19:01;;;;;;;5.10;3.63;;;;;;;15.40;46.92;97503.88;5002804;28;20050;-68
2022/04/28 09:21:27;;;;;;;6.28;3.80;;;;;;;15.12;47.55;97495.28;4999395;28;20165;-65
2022/04/28 09:23:53;;;;;;;5.60;3.75;;;;;;;15.37;46.97;97501.88;5002194;28;20034;-66
2022/04/28 09:26:24;;;;;;;6.40;4.63;;;;;;;15.69;47.86;97484.81;4997710;28;20041;-67
2022/04/28 09:28:53;;;;;;;6.60;4.25;;;;;;;15.88;48.42;97485.78;5003080;28;20042;-66
2022/04/28 09:31:19;;;;;;;5.97;3.75;;;;;;;15.91;46.74;97462.94;5000462;28;20049;-68
2022/04/28 09:33:47;;;;;;;6.38;4.60;;;;;;;16.47;47.43;97485.78;5004536;28;20111;-66
2022/04/28 09:36:13;;;;;;;7.88;4.35;;;;;;;16.02;48.69;97489.44;4996941;28;20454;-68
2022/04/28 09:38:38;;;;;;;5.82;3.97;;;;;;;15.55;47.67;97473.66;5009977;28;20064;-67
2022/04/28 09:43:56;;;;;;;6.13;4.43;;;;;;;15.53;46.52;97478.75;5008357;28;20124;-68
2022/04/28 09:46:25;;;;;;;7.00;4.15;;;;;;;16.39;47.84;97474.69;4999971;28;20135;-68
2022/04/28 09:48:52;;;;;;;11.18;4.47;;;;;;;15.60;47.79;97479.59;5005431;28;20041;-68
2022/04/28 09:51:25;;;;;;;5.53;3.42;;;;;;;15.57;45.97;97455.50;5002119;28;20049;-67
2022/04/28 09:53:53;;;;;;;6.82;3.97;;;;;;;15.58;46.38;97476.44;5005054;28;20049;-66
2022/04/28 09:56:24;;;;;;;6.85;4.00;;;;;;;15.54;45.92;97478.38;4999237;28;20506;-65
2022/04/28 09:58:51;;;;;;;5.97;3.95;;;;;;;15.64;46.99;97477.66;5027542;28;20045;-68
2022/04/28 10:01:19;;;;;;;3.97;3.00;;;;;;;15.93;45.69;97464.13;5036226;28;20037;-67
2022/04/28 10:03:45;;;;;;;8.40;4.53;;;;;;;15.35;46.05;97468.34;5038142;28;20045;-72
2022/04/28 10:06:11;;;;;;;5.20;3.63;;;;;;;16.03;48.36;97473.69;5018579;28;20505;-70
2022/04/28 10:08:38;;;;;;;7.70;4.90;;;;;;;16.97;43.45;97475.78;5023214;28;20151;-70
2022/04/28 10:11:08;;;;;;;7.50;3.40;;;;;;;16.21;46.29;97479.31;5020312;28;20038;-70
2022/04/28 10:13:33;;;;;;;5.93;3.42;;;;;;;16.93;46.33;97482.50;5023359;28;20073;-71
2022/04/28 10:16:02;;;;;;;5.75;3.17;;;;;;;17.19;44.88;97479.38;5024685;28;20033;-71
2022/04/28 10:18:38;;;;;;;6.00;3.55;;;;;;;16.52;45.25;97479.91;5021019;28;20052;-71
2022/04/28 10:21:06;;;;;;;6.72;3.60;;;;;;;16.63;46.26;97473.22;5021176;28;20029;-71
2022/04/28 10:35:08;;;;;;;12.20;5.20;;;;;;;16.69;46.60;97472.84;5020590;28;20034;-70
2022/04/28 10:37:45;;;;;;;8.25;3.88;;;;;;;16.55;43.38;97476.38;4982574;28;20044;-71
2022/04/28 10:40:16;;;;;;;4.53;2.92;;;;;;;17.19;42.02;97470.31;5016987;28;20033;-70
2022/04/28 10:42:45;;;;;;;6.43;3.20;;;;;;;17.17;43.56;97475.44;5024193;28;20037;-71
2022/04/28 10:45:22;;;;;;;7.30;3.25;;;;;;;16.92;45.30;97467.06;5019756;28;20052;-70
2022/04/28 10:47:48;;;;;;;8.55;3.13;;;;;;;17.56;40.97;97477.50;5022624;28;20072;-70
2022/04/28 10:50:24;;;;;;;5.88;2.58;;;;;;;16.57;41.89;97477.56;5016911;28;20529;-70
2022/04/28 10:52:59;;;;;;;9.52;3.33;;;;;;;16.86;43.12;97477.72;5022333;28;20079;-71
2022/04/28 10:55:33;;;;;;;6.00;3.00;;;;;;;16.59;44.91;97477.16;5017104;28;20390;-70
2022/04/28 10:58:17;;;;;;;5.63;2.70;;;;;;;16.73;45.12;97485.53;5023006;28;20061;-70
2022/04/28 11:00:53;;;;;;;6.65;3.58;;;;;;;16.65;45.61;97485.88;5022831;28;20044;-70
2022/04/28 11:03:46;;;;;;;5.28;2.85;;;;;;;17.31;46.34;97478.25;5016956;28;20140;-71
2022/04/28 11:06:19;;;;;;;5.25;3.33;;;;;;;18.43;41.53;97479.03;5016996;28;20436;-72
2022/04/28 11:08:50;;;;;;;5.00;3.30;;;;;;;16.76;44.96;97472.88;5023050;28;20042;-70
2022/04/28 11:11:16;;;;;;;5.18;3.10;;;;;;;16.11;43.96;97482.81;5017640;28;20085;-71
2022/04/28 11:13:48;;;;;;;4.72;2.42;;;;;;;16.84;43.70;97491.16;5020739;28;20071;-72
2022/04/28 11:16:14;;;;;;;9.40;3.63;;;;;;;17.18;43.63;97488.09;5016387;28;20081;-73
2022/04/28 11:18:42;;;;;;;4.82;3.15;;;;;;;17.27;44.46;97487.72;5021103;28;20081;-74
2022/04/28 11:21:08;;;;;;;5.10;2.90;;;;;;;17.34;45.26;97490.50;5013175;28;20046;-74
2022/04/28 11:23:41;;;;;;;5.75;3.80;;;;;;;17.12;42.17;97493.22;5006328;28;20145;-75
2022/04/28 11:26:07;;;;;;;4.68;3.08;;;;;;;17.27;43.02;97498.78;4998979;28;20095;-74
2022/04/28 11:28:35;;;;;;;5.07;3.40;;;;;;;17.71;42.78;97489.38;5003413;28;20068;-71
2022/04/28 11:31:00;;;;;;;4.88;2.78;;;;;;;17.56;43.62;97496.88;5009617;28;20538;-71
2022/04/28 11:33:26;;;;;;;4.55;2.80;;;;;;;18.02;42.43;97487.81;5007297;28;20141;-74
2022/04/28 11:35:53;;;;;;;3.97;2.67;;;;;;;18.31;41.61;97490.56;5010680;28;20038;-74
2022/04/28 11:38:27;;;;;;;4.78;2.90;;;;;;;17.49;42.18;97491.34;5007872;28;20041;-73
2022/04/28 11:41:03;;;;;;;4.78;2.60;;;;;;;17.64;40.31;97497.69;5021927;28;20037;-73
2022/04/28 11:43:31;;;;;;;4.28;2.28;;;;;;;17.92;41.46;97492.19;5017821;28;20463;-73
2022/04/28 11:45:58;;;;;;;4.78;2.20;;;;;;;18.31;40.92;97496.91;5021121;28;20111;-72
2022/04/28 11:48:29;;;;;;;3.88;2.53;;;;;;;17.05;40.64;97484.91;5037153;28;20029;-72
2022/04/28 11:51:05;;;;;;;4.00;2.30;;;;;;;17.00;40.90;97494.38;5021398;28;20072;-73
2022/04/28 11:53:42;;;;;;;3.30;2.20;;;;;;;17.07;41.14;97496.38;5020039;28;20080;-72
2022/04/28 11:56:35;;;;;;;3.90;2.20;;;;;;;17.58;41.92;97489.75;5013420;28;20076;-72